Time;durP1;ratioP1;P1;durP2;ratioP2;P2;SDS_P1;SDS_P2;PMS_P1;PMS_P2;Temp;Humidity;BMP_temperature;BMP_pressure;BME280_temperature;BME280_humidity;BME280_pressure;Samples;Min_cycle;Max_cycle;Signal;HPM_P1;HPM_P2
2023/08/28 00:00:27;;;;;;;4.20;2.20;;;;;;;;;;5066069;28;20121;-52
2023/08/28 00:02:54;;;;;;;4.15;2.50;;;;;;;;;;5074117;28;20045;-57
2023/08/28 00:05:21;;;;;;;4.47;2.30;;;;;;;;;;5057924;28;20045;-57
2023/08/28 00:07:49;;;;;;;5.53;2.20;;;;;;;;;;5054149;28;20422;-57
2023/08/28 00:10:16;;;;;;;4.18;1.75;;;;;;;;;;5053777;28;20055;-55
2023/08/28 00:12:43;;;;;;;3.60;1.85;;;;;;;;;;5053829;28;20103;-56
2023/08/28 00:15:11;;;;;;;3.88;1.90;;;;;;;;;;5053809;28;20066;-53
2023/08/28 00:17:38;;;;;;;4.57;1.70;;;;;;;;;;5053763;28;20052;-54
2023/08/28 00:20:07;;;;;;;3.95;2.13;;;;;;;;;;5064281;28;20051;-56
2023/08/28 00:22:34;;;;;;;2.42;1.40;;;;;;;;;;5073769;28;20056;-54
2023/08/28 00:25:02;;;;;;;3.35;2.38;;;;;;;;;;5062073;28;20132;-53
2023/08/28 00:27:30;;;;;;;2.58;1.30;;;;;;;;;;5053609;28;20110;-54
2023/08/28 00:29:57;;;;;;;3.47;1.85;;;;;;;;;;5053688;28;20102;-56
2023/08/28 00:32:24;;;;;;;3.40;1.63;;;;;;;;;;5053483;28;20045;-57
2023/08/28 00:34:50;;;;;;;2.60;1.40;;;;;;;;;;5053554;28;20557;-56
2023/08/28 00:37:17;;;;;;;2.60;1.40;;;;;;;;;;5053430;28;20049;-58
2023/08/28 00:39:44;;;;;;;2.67;1.52;;;;;;;;;;5053426;28;20064;-53
2023/08/28 00:42:13;;;;;;;3.40;1.75;;;;;;;;;;5052865;28;20067;-53
2023/08/28 00:44:39;;;;;;;2.55;1.40;;;;;;;;;;5060155;28;20398;-55
2023/08/28 00:47:08;;;;;;;4.90;1.75;;;;;;;;;;5062461;28;20073;-54
2023/08/28 00:49:35;;;;;;;2.90;1.60;;;;;;;;;;5061694;28;20063;-56
2023/08/28 00:52:01;;;;;;;3.70;1.52;;;;;;;;;;5067088;28;20079;-55
2023/08/28 00:54:28;;;;;;;3.20;1.75;;;;;;;;;;5052864;28;20037;-55
2023/08/28 00:56:55;;;;;;;3.75;2.17;;;;;;;;;;5053095;28;20053;-57
2023/08/28 00:59:24;;;;;;;4.45;2.47;;;;;;;;;;5053270;28;20049;-57
2023/08/28 01:01:51;;;;;;;4.07;2.20;;;;;;;;;;5053268;28;20084;-54
2023/08/28 01:04:18;;;;;;;3.70;1.77;;;;;;;;;;5052858;28;20115;-56
2023/08/28 01:06:52;;;;;;;3.15;1.73;;;;;;;;;;5053084;28;20045;-57
2023/08/28 01:09:26;;;;;;;4.43;1.92;;;;;;;;;;5053012;28;20554;-57
2023/08/28 01:12:02;;;;;;;3.80;1.88;;;;;;;;;;5061187;28;20041;-57
2023/08/28 01:14:30;;;;;;;2.97;1.40;;;;;;;;;;5067015;28;20045;-57
2023/08/28 01:17:03;;;;;;;3.63;1.70;;;;;;;;;;5052679;28;20045;-57
2023/08/28 01:19:33;;;;;;;4.25;1.73;;;;;;;;;;5052848;28;20104;-55
2023/08/28 01:22:09;;;;;;;3.80;1.88;;;;;;;;;;5052574;28;20123;-53
2023/08/28 01:24:38;;;;;;;2.92;1.63;;;;;;;;;;5052163;28;20045;-53
2023/08/28 01:27:06;;;;;;;3.38;1.88;;;;;;;;;;5052391;28;20041;-55
2023/08/28 01:29:34;;;;;;;3.67;1.70;;;;;;;;;;5052838;28;20045;-56
2023/08/28 01:32:01;;;;;;;2.95;1.60;;;;;;;;;;5052508;28;20464;-56
2023/08/28 01:34:27;;;;;;;3.25;1.67;;;;;;;;;;5052347;28;20049;-58
2023/08/28 01:36:59;;;;;;;4.38;1.85;;;;;;;;;;5051902;28;20051;-53
2023/08/28 01:39:32;;;;;;;3.13;1.70;;;;;;;;;;5056955;28;20127;-51
2023/08/28 01:41:59;;;;;;;3.58;1.67;;;;;;;;;;5057913;28;20044;-56
2023/08/28 01:44:31;;;;;;;2.88;1.63;;;;;;;;;;5063322;28;20044;-52
2023/08/28 01:46:58;;;;;;;3.08;1.73;;;;;;;;;;5054564;28;20056;-56
2023/08/28 01:49:28;;;;;;;3.88;2.15;;;;;;;;;;5056577;28;20059;-53
2023/08/28 01:51:54;;;;;;;3.45;1.52;;;;;;;;;;5060654;28;20043;-54
2023/08/28 01:54:21;;;;;;;2.90;1.70;;;;;;;;;;5052204;28;20052;-54
2023/08/28 01:56:48;;;;;;;2.83;1.65;;;;;;;;;;5051630;28;20056;-52
2023/08/28 01:59:15;;;;;;;2.42;1.48;;;;;;;;;;5051578;28;20071;-55
2023/08/28 02:01:42;;;;;;;3.00;1.70;;;;;;;;;;5058642;28;20055;-53
2023/08/28 02:04:09;;;;;;;4.30;1.73;;;;;;;;;;5052973;28;20080;-54
2023/08/28 02:06:36;;;;;;;4.25;1.80;;;;;;;;;;5051637;28;20045;-57
2023/08/28 02:09:02;;;;;;;3.75;1.60;;;;;;;;;;5051914;28;20045;-55
2023/08/28 02:11:29;;;;;;;4.65;1.88;;;;;;;;;;5051824;28;20041;-54
2023/08/28 02:13:55;;;;;;;3.13;1.90;;;;;;;;;;5051528;28;20490;-54
2023/08/28 02:16:22;;;;;;;3.70;1.80;;;;;;;;;;5051525;28;20064;-56
2023/08/28 02:18:50;;;;;;;3.00;1.90;;;;;;;;;;5051432;28;20045;-51
2023/08/28 02:21:17;;;;;;;4.72;2.00;;;;;;;;;;5051519;28;20044;-51
2023/08/28 02:23:43;;;;;;;3.50;1.67;;;;;;;;;;5051455;28;20045;-56
2023/08/28 02:26:10;;;;;;;3.53;1.77;;;;;;;;;;5052509;28;20052;-53
2023/08/28 02:28:37;;;;;;;3.72;1.67;;;;;;;;;;5063331;28;20507;-56
2023/08/28 02:31:04;;;;;;;2.45;1.33;;;;;;;;;;5071394;28;20044;-55
2023/08/28 02:33:31;;;;;;;2.78;1.60;;;;;;;;;;5069602;28;20040;-58
2023/08/28 02:36:00;;;;;;;4.30;1.65;;;;;;;;;;5059798;28;20045;-55
2023/08/28 02:38:27;;;;;;;2.67;1.55;;;;;;;;;;5071838;28;20409;-56
2023/08/28 02:40:54;;;;;;;3.75;1.67;;;;;;;;;;5071561;28;20394;-55
2023/08/28 02:43:20;;;;;;;2.90;1.60;;;;;;;;;;5071448;28;20054;-58
2023/08/28 02:45:47;;;;;;;3.60;1.80;;;;;;;;;;5053774;28;20052;-56
2023/08/28 02:48:13;;;;;;;3.38;2.03;;;;;;;;;;5051613;28;20436;-56
2023/08/28 02:50:40;;;;;;;3.28;1.80;;;;;;;;;;5051514;28;20470;-57
2023/08/28 02:53:08;;;;;;;2.58;1.60;;;;;;;;;;5051764;28;20041;-56
2023/08/28 02:55:38;;;;;;;3.35;1.65;;;;;;;;;;5051059;28;20052;-59
2023/08/28 02:58:05;;;;;;;2.85;1.70;;;;;;;;;;5051342;28;20041;-56
2023/08/28 03:00:31;;;;;;;3.97;1.70;;;;;;;;;;5050993;28;20045;-51
2023/08/28 03:02:58;;;;;;;3.03;1.60;;;;;;;;;;5051195;28;20562;-56
2023/08/28 03:05:25;;;;;;;3.05;1.60;;;;;;;;;;5051360;28;20044;-56
2023/08/28 03:07:51;;;;;;;4.15;1.83;;;;;;;;;;5050857;28;20049;-58
2023/08/28 03:10:19;;;;;;;3.28;1.83;;;;;;;;;;5054071;28;20045;-55
2023/08/28 03:12:46;;;;;;;3.30;2.05;;;;;;;;;;5055035;28;20413;-56
2023/08/28 03:15:12;;;;;;;3.85;1.88;;;;;;;;;;5054922;28;20479;-55
2023/08/28 03:17:39;;;;;;;4.07;2.00;;;;;;;;;;5055087;28;20395;-57
2023/08/28 03:20:09;;;;;;;3.15;1.75;;;;;;;;;;5054732;28;20045;-56
2023/08/28 03:22:35;;;;;;;2.97;1.70;;;;;;;;;;5055151;28;20076;-55
2023/08/28 03:25:03;;;;;;;3.53;1.85;;;;;;;;;;5055144;28;20055;-52
2023/08/28 03:27:32;;;;;;;6.18;1.80;;;;;;;;;;5054589;28;20049;-53
2023/08/28 03:29:59;;;;;;;3.42;1.80;;;;;;;;;;5054568;28;20486;-57
2023/08/28 03:32:26;;;;;;;3.38;1.80;;;;;;;;;;5054958;28;20052;-56
2023/08/28 03:34:52;;;;;;;3.42;1.80;;;;;;;;;;5054672;28;20044;-57
2023/08/28 03:37:19;;;;;;;3.80;1.77;;;;;;;;;;5054427;28;20060;-59
2023/08/28 03:39:45;;;;;;;4.60;1.80;;;;;;;;;;5054253;28;20053;-50
2023/08/28 03:42:12;;;;;;;4.38;2.40;;;;;;;;;;5054287;28;20534;-57
2023/08/28 03:44:40;;;;;;;4.97;2.08;;;;;;;;;;5054347;28;20056;-56
2023/08/28 03:47:07;;;;;;;3.75;1.90;;;;;;;;;;5054266;28;20513;-53
2023/08/28 03:49:33;;;;;;;3.33;1.70;;;;;;;;;;5054428;28;20064;-56
2023/08/28 03:52:00;;;;;;;4.47;1.98;;;;;;;;;;5053898;28;20483;-55
2023/08/28 03:54:28;;;;;;;3.60;2.00;;;;;;;;;;5054093;28;20139;-56
2023/08/28 03:56:55;;;;;;;4.22;2.13;;;;;;;;;;5054719;28;20391;-57
2023/08/28 03:59:21;;;;;;;4.60;2.08;;;;;;;;;;5054254;28;20561;-56
2023/08/28 04:01:50;;;;;;;3.92;2.10;;;;;;;;;;5054240;28;20468;-56
2023/08/28 04:04:17;;;;;;;4.30;2.10;;;;;;;;;;5054040;28;20041;-54
2023/08/28 04:06:44;;;;;;;3.63;2.00;;;;;;;;;;5053036;28;20052;-52
2023/08/28 04:09:10;;;;;;;2.90;1.83;;;;;;;;;;5063628;28;20102;-55
2023/08/28 04:11:37;;;;;;;4.15;2.40;;;;;;;;;;5060411;28;20482;-59
2023/08/28 04:14:03;;;;;;;3.45;2.00;;;;;;;;;;5065519;28;20512;-57
2023/08/28 04:16:30;;;;;;;4.25;2.60;;;;;;;;;;5070106;28;20045;-55
2023/08/28 04:18:58;;;;;;;4.63;2.17;;;;;;;;;;5061989;28;20136;-58
2023/08/28 04:21:24;;;;;;;4.05;2.03;;;;;;;;;;5032972;28;20057;-54
2023/08/28 04:23:51;;;;;;;5.10;2.55;;;;;;;;;;5033876;28;20045;-56
2023/08/28 04:26:17;;;;;;;3.70;2.15;;;;;;;;;;5033690;28;20064;-60
2023/08/28 04:28:44;;;;;;;3.78;2.25;;;;;;;;;;5053965;28;20469;-55
2023/08/28 04:31:12;;;;;;;3.70;2.15;;;;;;;;;;5053570;28;20045;-55
2023/08/28 04:33:39;;;;;;;3.50;1.95;;;;;;;;;;5065305;28;20097;-53
2023/08/28 04:36:07;;;;;;;4.05;2.03;;;;;;;;;;5062548;28;20099;-55
2023/08/28 04:38:33;;;;;;;5.22;2.35;;;;;;;;;;5062472;28;20045;-54
2023/08/28 04:41:00;;;;;;;4.28;2.20;;;;;;;;;;5069989;28;20044;-54
2023/08/28 04:43:26;;;;;;;4.10;2.10;;;;;;;;;;5070702;28;20048;-55
2023/08/28 04:45:53;;;;;;;3.70;2.03;;;;;;;;;;5065148;28;20450;-55
2023/08/28 04:48:19;;;;;;;4.03;2.53;;;;;;;;;;5060659;28;20049;-55
2023/08/28 04:50:46;;;;;;;4.72;2.40;;;;;;;;;;5053268;28;20521;-53
2023/08/28 04:53:14;;;;;;;3.75;2.38;;;;;;;;;;5053275;28;20045;-56
2023/08/28 04:55:41;;;;;;;4.28;2.53;;;;;;;;;;5058375;28;20075;-54
2023/08/28 04:58:07;;;;;;;4.70;2.40;;;;;;;;;;5064969;28;20049;-52
2023/08/28 05:00:34;;;;;;;5.18;2.38;;;;;;;;;;5073244;28;20059;-55
2023/08/28 05:03:01;;;;;;;5.70;3.35;;;;;;;;;;5063167;28;20049;-55
2023/08/28 05:05:27;;;;;;;4.70;2.67;;;;;;;;;;5053373;28;20049;-54
2023/08/28 05:07:54;;;;;;;4.30;2.80;;;;;;;;;;5051540;28;20041;-53
2023/08/28 05:10:22;;;;;;;6.57;2.85;;;;;;;;;;5075059;22;20045;-54
2023/08/28 05:12:48;;;;;;;8.55;3.00;;;;;;;;;;5050088;28;20064;-51
2023/08/28 05:15:15;;;;;;;4.68;2.58;;;;;;;;;;5054353;28;20417;-50
2023/08/28 05:17:42;;;;;;;5.00;2.67;;;;;;;;;;5057413;28;20048;-56
2023/08/28 05:20:09;;;;;;;5.28;2.50;;;;;;;;;;5052650;28;20136;-50
2023/08/28 05:22:36;;;;;;;4.78;2.95;;;;;;;;;;5056798;28;20446;-53
2023/08/28 05:25:02;;;;;;;4.35;2.70;;;;;;;;;;5052717;28;20128;-52
2023/08/28 05:27:30;;;;;;;4.63;2.85;;;;;;;;;;5052518;28;20055;-50
2023/08/28 05:29:57;;;;;;;5.50;2.40;;;;;;;;;;5052729;28;20477;-51
2023/08/28 05:32:23;;;;;;;4.35;2.10;;;;;;;;;;5052217;28;20049;-55
2023/08/28 05:34:50;;;;;;;3.45;1.90;;;;;;;;;;5052363;28;20056;-54
2023/08/28 05:37:17;;;;;;;3.58;2.03;;;;;;;;;;5057213;28;20275;-52
2023/08/28 05:39:44;;;;;;;3.53;2.35;;;;;;;;;;5057754;28;20044;-53
2023/08/28 05:42:10;;;;;;;4.13;2.30;;;;;;;;;;5052098;28;20056;-51
2023/08/28 05:44:38;;;;;;;3.72;2.15;;;;;;;;;;5052360;28;20417;-55
2023/08/28 05:47:05;;;;;;;3.80;2.28;;;;;;;;;;5052072;28;20512;-53
2023/08/28 05:49:31;;;;;;;3.97;2.22;;;;;;;;;;5052480;28;20045;-53
2023/08/28 05:51:58;;;;;;;4.47;2.42;;;;;;;;;;5052204;28;20051;-52
2023/08/28 05:54:25;;;;;;;4.93;2.50;;;;;;;;;;5052308;28;20041;-52
2023/08/28 05:56:52;;;;;;;4.25;2.65;;;;;;;;;;5052557;28;20153;-50
2023/08/28 05:59:18;;;;;;;5.63;2.72;;;;;;;;;;5052041;28;20049;-51
2023/08/28 06:01:46;;;;;;;4.65;2.90;;;;;;;;;;5052056;28;20052;-51
2023/08/28 06:04:14;;;;;;;6.25;2.90;;;;;;;;;;5052420;28;20520;-52
2023/08/28 06:06:59;;;;;;;4.90;2.83;;;;;;;;;;5053250;28;20128;-54
2023/08/28 06:09:26;;;;;;;4.57;2.67;;;;;;;;;;5053514;28;20053;-51
2023/08/28 06:11:53;;;;;;;5.75;3.90;;;;;;;;;;5051656;28;20045;-54
2023/08/28 06:14:19;;;;;;;5.40;2.80;;;;;;;;;;5051272;28;20041;-51
2023/08/28 06:16:47;;;;;;;5.03;3.22;;;;;;;;;;5051985;28;20055;-56
2023/08/28 06:19:14;;;;;;;5.70;3.05;;;;;;;;;;5051705;28;20080;-53
2023/08/28 06:21:44;;;;;;;5.07;2.83;;;;;;;;;;5052744;28;20461;-54
2023/08/28 06:24:11;;;;;;;;;;;;;;;;;;5052220;28;20045;-54
2023/08/28 06:26:37;;;;;;;7.10;2.80;;;;;;;;;;5051470;28;19927;-51
2023/08/28 06:29:04;;;;;;;5.32;3.50;;;;;;;;;;5051445;28;20053;-54
2023/08/28 06:31:31;;;;;;;4.72;3.15;;;;;;;;;;5051613;28;20202;-52
2023/08/28 06:33:58;;;;;;;5.43;3.42;;;;;;;;;;5051422;28;20041;-49
2023/08/28 06:36:25;;;;;;;5.53;3.30;;;;;;;;;;5054412;28;20049;-55
2023/08/28 06:38:52;;;;;;;4.32;2.92;;;;;;;;;;5064878;28;20059;-55
2023/08/28 06:41:18;;;;;;;5.40;3.08;;;;;;;;;;5061534;28;20052;-54
2023/08/28 06:43:46;;;;;;;4.85;3.22;;;;;;;;;;5052052;28;20049;-53
2023/08/28 06:46:12;;;;;;;5.18;3.05;;;;;;;;;;5055817;28;20041;-54
2023/08/28 06:48:39;;;;;;;5.65;3.22;;;;;;;;;;5054905;28;20413;-55
2023/08/28 06:51:07;;;;;;;4.60;2.70;;;;;;;;;;5054711;28;20044;-52
2023/08/28 06:53:34;;;;;;;4.45;2.65;;;;;;;;;;5058882;28;20090;-53
2023/08/28 06:56:01;;;;;;;4.70;2.70;;;;;;;;;;5055596;28;20532;-52
2023/08/28 06:58:27;;;;;;;4.53;2.42;;;;;;;;;;5055470;28;20445;-52
2023/08/28 07:00:54;;;;;;;3.60;2.05;;;;;;;;;;5055805;28;20056;-51
2023/08/28 07:03:20;;;;;;;4.70;2.80;;;;;;;;;;5062308;28;20040;-55
2023/08/28 07:05:47;;;;;;;3.53;2.28;;;;;;;;;;5058216;28;20421;-53
2023/08/28 07:08:15;;;;;;;3.40;1.98;;;;;;;;;;5056457;28;20137;-54
2023/08/28 07:10:42;;;;;;;3.25;1.98;;;;;;;;;;5052620;28;20136;-54
2023/08/28 07:13:09;;;;;;;5.57;2.60;;;;;;;;;;5051695;28;20051;-50
2023/08/28 07:15:54;;;;;;;3.83;2.17;;;;;;;;;;5049250;28;20132;-52
2023/08/28 07:18:20;;;;;;;3.40;2.15;;;;;;;;;;5050689;28;20056;-52
2023/08/28 07:20:47;;;;;;;4.00;2.47;;;;;;;;;;5053767;28;20059;-52
2023/08/28 07:23:15;;;;;;;4.28;2.30;;;;;;;;;;5051409;28;20141;-53
2023/08/28 07:25:44;;;;;;;4.30;2.50;;;;;;;;;;5052593;28;20056;-50
2023/08/28 07:28:11;;;;;;;3.03;1.80;;;;;;;;;;5053035;28;20055;-54
2023/08/28 07:30:37;;;;;;;3.88;2.15;;;;;;;;;;5056410;28;20067;-54
2023/08/28 07:33:05;;;;;;;3.42;1.95;;;;;;;;;;5051185;28;20045;-52
2023/08/28 07:35:34;;;;;;;4.53;2.17;;;;;;;;;;5046303;28;20490;-52
2023/08/28 07:38:03;;;;;;;4.32;2.00;;;;;;;;;;5052782;28;20066;-53
2023/08/28 07:40:31;;;;;;;3.20;2.10;;;;;;;;;;5045702;28;20037;-52
2023/08/28 07:42:58;;;;;;;3.50;2.03;;;;;;;;;;5048936;28;20049;-54
2023/08/28 07:45:25;;;;;;;3.63;2.03;;;;;;;;;;5052651;28;20083;-50
2023/08/28 07:47:51;;;;;;;4.22;2.40;;;;;;;;;;5050075;28;20055;-61
2023/08/28 07:50:18;;;;;;;3.70;1.80;;;;;;;;;;5050404;28;20045;-52
2023/08/28 07:52:45;;;;;;;4.72;2.30;;;;;;;;;;5054273;28;20052;-54
2023/08/28 07:55:11;;;;;;;4.18;2.30;;;;;;;;;;5053376;28;20052;-60
2023/08/28 07:57:39;;;;;;;3.40;2.22;;;;;;;;;;5050988;28;20512;-60
2023/08/28 08:00:10;;;;;;;3.53;1.85;;;;;;;;;;5051626;28;20056;-58
2023/08/28 08:02:37;;;;;;;3.78;2.00;;;;;;;;;;5051320;28;20498;-57
2023/08/28 08:05:04;;;;;;;4.65;2.53;;;;;;;;;;5050654;28;20099;-55
2023/08/28 08:07:32;;;;;;;3.03;2.03;;;;;;;;;;5051187;28;20056;-59
2023/08/28 08:09:59;;;;;;;2.80;1.70;;;;;;;;;;5048966;28;20056;-58
2023/08/28 08:12:26;;;;;;;3.20;1.67;;;;;;;;;;5052655;28;20533;-63
2023/08/28 08:14:54;;;;;;;3.95;2.08;;;;;;;;;;5051675;28;20068;-51
2023/08/28 08:17:21;;;;;;;4.15;2.38;;;;;;;;;;5051080;28;20045;-58
2023/08/28 08:19:47;;;;;;;3.38;2.03;;;;;;;;;;5050504;28;20045;-53
2023/08/28 08:22:14;;;;;;;3.63;1.80;;;;;;;;;;5051101;28;20049;-56
2023/08/28 08:24:40;;;;;;;4.88;1.80;;;;;;;;;;5050877;28;20072;-58
2023/08/28 08:27:07;;;;;;;3.42;1.80;;;;;;;;;;5050366;28;20421;-57
2023/08/28 08:29:34;;;;;;;3.92;1.92;;;;;;;;;;5050182;28;20053;-52
2023/08/28 08:32:01;;;;;;;3.47;2.38;;;;;;;;;;5049998;28;20044;-54
2023/08/28 08:34:29;;;;;;;4.10;1.98;;;;;;;;;;5050040;28;20047;-53
2023/08/28 08:36:55;;;;;;;3.05;1.58;;;;;;;;;;5048694;28;20045;-58
2023/08/28 08:39:24;;;;;;;3.53;1.70;;;;;;;;;;5050603;28;20141;-56
2023/08/28 08:41:50;;;;;;;3.70;1.90;;;;;;;;;;5049438;28;20067;-54
2023/08/28 08:44:17;;;;;;;3.78;1.70;;;;;;;;;;5050347;28;20490;-58
2023/08/28 08:46:45;;;;;;;2.70;1.67;;;;;;;;;;5050342;28;20418;-58
2023/08/28 08:49:17;;;;;;;3.13;1.73;;;;;;;;;;5050364;28;20049;-56
2023/08/28 08:51:45;;;;;;;4.22;1.70;;;;;;;;;;5049957;28;20110;-59
2023/08/28 08:54:18;;;;;;;5.20;1.90;;;;;;;;;;5050338;28;20048;-58
2023/08/28 08:56:49;;;;;;;4.57;1.90;;;;;;;;;;5046981;28;20398;-56
2023/08/28 08:59:16;;;;;;;8.00;3.00;;;;;;;;;;5049764;28;20049;-56
2023/08/28 09:01:43;;;;;;;3.17;1.85;;;;;;;;;;5049928;28;20049;-55
2023/08/28 09:04:10;;;;;;;3.45;1.80;;;;;;;;;;5049265;28;20060;-50
2023/08/28 09:06:40;;;;;;;3.97;2.00;;;;;;;;;;5046832;28;20536;-58
2023/08/28 09:09:09;;;;;;;4.78;2.10;;;;;;;;;;5048405;28;20068;-57
2023/08/28 09:11:37;;;;;;;3.90;2.10;;;;;;;;;;5044417;28;20052;-56
2023/08/28 09:14:04;;;;;;;3.08;1.65;;;;;;;;;;5049736;28;20332;-58
2023/08/28 09:16:33;;;;;;;3.60;1.77;;;;;;;;;;5048325;28;20041;-55
2023/08/28 09:19:00;;;;;;;3.42;1.85;;;;;;;;;;5049979;28;20055;-54
2023/08/28 09:21:27;;;;;;;3.53;2.00;;;;;;;;;;5049318;28;20044;-57
2023/08/28 09:23:55;;;;;;;3.88;1.95;;;;;;;;;;5049470;28;20055;-55
2023/08/28 09:26:23;;;;;;;2.70;1.58;;;;;;;;;;5049503;28;20059;-51
2023/08/28 09:29:00;;;;;;;2.75;1.50;;;;;;;;;;5049767;28;20142;-52
2023/08/28 09:31:32;;;;;;;3.45;1.40;;;;;;;;;;5049089;28;20056;-50
2023/08/28 09:33:58;;;;;;;2.88;1.63;;;;;;;;;;5049250;28;20045;-50
2023/08/28 09:36:25;;;;;;;3.90;1.70;;;;;;;;;;5041882;28;20488;-53
2023/08/28 09:38:52;;;;;;;3.97;2.08;;;;;;;;;;5049596;28;20048;-49
2023/08/28 09:41:20;;;;;;;2.40;1.50;;;;;;;;;;5048458;28;20041;-57
2023/08/28 09:43:50;;;;;;;3.08;1.60;;;;;;;;;;5048292;28;20157;-54
2023/08/28 09:46:17;;;;;;;2.75;1.80;;;;;;;;;;5045029;28;20045;-53
2023/08/28 09:48:45;;;;;;;3.50;2.10;;;;;;;;;;5043227;28;20509;-53
2023/08/28 09:51:12;;;;;;;3.70;1.70;;;;;;;;;;5045674;28;20052;-56
2023/08/28 09:53:40;;;;;;;4.65;2.10;;;;;;;;;;5046689;28;20098;-55
2023/08/28 09:56:07;;;;;;;3.20;1.60;;;;;;;;;;5046175;28;20425;-57
2023/08/28 09:58:36;;;;;;;2.83;1.67;;;;;;;;;;5044589;28;20548;-55
2023/08/28 10:01:03;;;;;;;2.97;1.60;;;;;;;;;;5046992;28;20486;-55
2023/08/28 10:03:30;;;;;;;3.30;1.80;;;;;;;;;;5047870;28;20375;-54
2023/08/28 10:05:59;;;;;;;2.95;1.42;;;;;;;;;;5051261;28;20049;-58
2023/08/28 10:08:29;;;;;;;3.33;1.88;;;;;;;;;;5048006;28;20147;-56
2023/08/28 10:10:58;;;;;;;3.42;1.90;;;;;;;;;;5047863;28;20382;-55
2023/08/28 10:13:25;;;;;;;4.40;2.05;;;;;;;;;;5048345;28;20055;-56
2023/08/28 10:15:58;;;;;;;3.72;1.80;;;;;;;;;;5049638;28;20049;-55
2023/08/28 10:18:33;;;;;;;2.58;1.80;;;;;;;;;;5047334;28;20128;-53
2023/08/28 10:21:00;;;;;;;3.60;1.83;;;;;;;;;;5042992;28;20509;-62
2023/08/28 10:23:29;;;;;;;3.58;1.50;;;;;;;;;;5046712;28;20501;-54
2023/08/28 10:25:56;;;;;;;3.72;1.85;;;;;;;;;;5051448;28;20057;-56
2023/08/28 10:28:25;;;;;;;4.50;2.20;;;;;;;;;;5049183;28;20347;-57
2023/08/28 10:30:52;;;;;;;2.72;1.52;;;;;;;;;;5048128;28;20052;-55
2023/08/28 10:33:22;;;;;;;3.50;1.65;;;;;;;;;;5048128;28;20051;-53
2023/08/28 10:35:51;;;;;;;2.20;1.23;;;;;;;;;;5047933;28;20057;-53
2023/08/28 10:38:20;;;;;;;3.13;1.60;;;;;;;;;;5048041;28;20094;-57
2023/08/28 10:40:47;;;;;;;2.40;1.35;;;;;;;;;;5047576;28;20127;-52
2023/08/28 10:43:14;;;;;;;2.17;1.10;;;;;;;;;;5047893;28;20053;-55
2023/08/28 10:45:42;;;;;;;2.22;1.20;;;;;;;;;;5048388;28;20059;-54
2023/08/28 10:48:09;;;;;;;2.45;1.30;;;;;;;;;;5047785;28;20051;-53
2023/08/28 10:50:37;;;;;;;2.75;1.30;;;;;;;;;;5047863;28;20120;-55
2023/08/28 10:53:04;;;;;;;2.60;1.33;;;;;;;;;;5048314;28;20049;-56
2023/08/28 10:55:31;;;;;;;2.63;1.25;;;;;;;;;;5048126;28;20512;-57
2023/08/28 10:58:02;;;;;;;1.77;1.00;;;;;;;;;;5048852;28;20128;-55
2023/08/28 11:00:29;;;;;;;2.45;1.10;;;;;;;;;;5047164;28;20045;-54
2023/08/28 11:03:10;;;;;;;1.75;0.95;;;;;;;;;;5048589;28;20052;-52
2023/08/28 11:05:39;;;;;;;1.55;0.98;;;;;;;;;;5044321;28;20049;-53
2023/08/28 11:08:07;;;;;;;1.73;0.95;;;;;;;;;;5047686;28;20049;-53
2023/08/28 11:10:35;;;;;;;1.67;0.85;;;;;;;;;;5044927;28;20423;-50
2023/08/28 11:13:05;;;;;;;1.70;0.80;;;;;;;;;;5059282;22;20048;-57
2023/08/28 11:15:33;;;;;;;1.77;0.90;;;;;;;;;;5048960;28;20509;-54
2023/08/28 11:18:39;;;;;;;2.42;1.00;;;;;;;;;;5052283;28;20056;-56
2023/08/28 11:21:07;;;;;;;2.25;1.10;;;;;;;;;;5046750;28;20080;-53
2023/08/28 11:23:36;;;;;;;2.20;0.90;;;;;;;;;;5052728;28;20405;-54
2023/08/28 11:26:05;;;;;;;1.85;1.05;;;;;;;;;;5052596;28;20098;-49
2023/08/28 11:28:43;;;;;;;1.88;1.00;;;;;;;;;;5050741;28;20226;-54
2023/08/28 11:31:10;;;;;;;3.00;1.40;;;;;;;;;;5058133;28;20518;-56
2023/08/28 11:33:38;;;;;;;1.63;0.80;;;;;;;;;;5066915;28;20154;-51
2023/08/28 11:36:07;;;;;;;3.00;0.80;;;;;;;;;;5042744;28;20045;-54
2023/08/28 11:38:33;;;;;;;3.45;1.38;;;;;;;;;;5050984;28;20132;-61
2023/08/28 11:41:04;;;;;;;3.67;1.30;;;;;;;;;;5060688;28;20131;-60
2023/08/28 11:43:33;;;;;;;;;;;;;;;;;;5049762;28;20045;-61
2023/08/28 11:46:00;;;;;;;24.50;8.95;;;;;;;;;;5044293;28;20007;-55
2023/08/28 11:48:27;;;;;;;20.48;7.38;;;;;;;;;;5055718;28;20053;-56
2023/08/28 11:51:00;;;;;;;6.78;2.47;;;;;;;;;;5054501;28;20048;-56
2023/08/28 11:53:32;;;;;;;2.47;1.10;;;;;;;;;;5049122;28;20049;-56
2023/08/28 11:56:01;;;;;;;2.45;0.98;;;;;;;;;;5058035;28;20139;-56
2023/08/28 11:58:27;;;;;;;2.03;0.90;;;;;;;;;;5056760;28;20127;-57
2023/08/28 12:00:54;;;;;;;1.55;0.90;;;;;;;;;;5051039;28;20417;-57
2023/08/28 12:03:21;;;;;;;2.22;0.80;;;;;;;;;;5059356;28;20482;-57
2023/08/28 12:05:47;;;;;;;4.13;1.00;;;;;;;;;;5048119;28;20037;-57
2023/08/28 12:08:14;;;;;;;2.58;1.00;;;;;;;;;;5047669;28;20390;-53
2023/08/28 12:10:43;;;;;;;2.42;1.20;;;;;;;;;;5044579;28;20041;-57
2023/08/28 12:13:10;;;;;;;0.98;0.63;;;;;;;;;;5053940;28;20072;-57
2023/08/28 12:15:37;;;;;;;3.22;1.00;;;;;;;;;;5055532;28;20474;-53
2023/08/28 12:18:05;;;;;;;1.50;0.80;;;;;;;;;;5060848;28;20516;-57
2023/08/28 12:20:32;;;;;;;2.97;1.08;;;;;;;;;;5055403;28;20504;-58
2023/08/28 12:22:59;;;;;;;2.15;1.05;;;;;;;;;;5055876;28;20045;-52
2023/08/28 12:25:34;;;;;;;2.47;1.00;;;;;;;;;;5052354;28;20045;-57
2023/08/28 12:28:07;;;;;;;2.53;1.00;;;;;;;;;;5049732;28;20045;-54
2023/08/28 12:30:34;;;;;;;1.40;1.00;;;;;;;;;;5043751;28;20045;-53
2023/08/28 12:33:02;;;;;;;1.80;0.93;;;;;;;;;;5048882;28;20045;-57
2023/08/28 12:35:35;;;;;;;1.35;0.90;;;;;;;;;;5049624;28;20047;-55
2023/08/28 12:38:01;;;;;;;1.90;0.90;;;;;;;;;;5054686;28;20052;-56
2023/08/28 12:40:34;;;;;;;1.23;0.80;;;;;;;;;;5053328;28;20041;-55
2023/08/28 12:43:03;;;;;;;2.28;1.08;;;;;;;;;;5053850;28;20367;-55
2023/08/28 12:45:33;;;;;;;2.33;1.27;;;;;;;;;;5051342;28;20544;-55
2023/08/28 12:48:00;;;;;;;3.65;1.75;;;;;;;;;;5058024;28;20457;-55
2023/08/28 12:50:26;;;;;;;2.03;1.10;;;;;;;;;;5053475;28;20037;-55
2023/08/28 12:52:53;;;;;;;2.22;1.00;;;;;;;;;;5053357;28;20049;-52
2023/08/28 12:55:20;;;;;;;2.22;1.00;;;;;;;;;;5047026;28;20059;-58
2023/08/28 12:57:46;;;;;;;2.97;1.08;;;;;;;;;;5060176;28;20048;-53
2023/08/28 13:00:14;;;;;;;1.90;0.90;;;;;;;;;;5047779;28;20522;-56
2023/08/28 13:02:42;;;;;;;1.63;0.80;;;;;;;;;;5053206;28;20041;-57
2023/08/28 13:05:11;;;;;;;1.55;1.00;;;;;;;;;;5054611;28;20044;-56
2023/08/28 13:07:38;;;;;;;1.90;0.80;;;;;;;;;;5044574;28;20149;-55
2023/08/28 13:10:05;;;;;;;1.52;0.75;;;;;;;;;;5045594;28;20069;-56
2023/08/28 13:12:32;;;;;;;2.78;1.20;;;;;;;;;;5052865;28;20055;-54
2023/08/28 13:14:58;;;;;;;2.50;0.95;;;;;;;;;;5052207;28;20514;-54
2023/08/28 13:17:25;;;;;;;2.90;0.90;;;;;;;;;;5055592;28;20500;-57
2023/08/28 13:19:53;;;;;;;1.85;0.80;;;;;;;;;;5055683;28;20080;-56
2023/08/28 13:22:20;;;;;;;1.63;0.82;;;;;;;;;;5061113;28;20076;-56
2023/08/28 13:24:46;;;;;;;1.70;0.85;;;;;;;;;;5054888;28;20115;-53
2023/08/28 13:27:13;;;;;;;1.80;0.98;;;;;;;;;;5052059;28;20049;-57
2023/08/28 13:29:39;;;;;;;2.35;1.10;;;;;;;;;;5055250;28;20522;-57
2023/08/28 13:32:07;;;;;;;1.83;1.17;;;;;;;;;;5061176;28;20132;-56
2023/08/28 13:34:33;;;;;;;2.67;1.23;;;;;;;;;;5059547;28;20045;-57
2023/08/28 13:37:05;;;;;;;3.10;1.23;;;;;;;;;;5055194;28;20056;-55
2023/08/28 13:39:31;;;;;;;2.58;1.20;;;;;;;;;;5051747;28;20064;-57
2023/08/28 13:41:58;;;;;;;2.92;1.42;;;;;;;;;;5061601;28;20050;-57
2023/08/28 13:44:24;;;;;;;3.38;1.58;;;;;;;;;;5054868;28;20412;-56
2023/08/28 13:46:52;;;;;;;3.08;1.38;;;;;;;;;;5050056;28;20398;-54
2023/08/28 13:49:19;;;;;;;3.33;1.40;;;;;;;;;;5054615;28;20048;-54
2023/08/28 13:51:46;;;;;;;2.50;1.17;;;;;;;;;;5058824;28;20040;-54
2023/08/28 13:54:15;;;;;;;3.13;1.30;;;;;;;;;;5060179;28;20047;-52
2023/08/28 13:56:41;;;;;;;2.22;1.10;;;;;;;;;;5050386;28;20040;-52
2023/08/28 13:59:08;;;;;;;3.50;2.00;;;;;;;;;;5052586;28;20065;-54
2023/08/28 14:01:34;;;;;;;2.35;1.33;;;;;;;;;;5042241;28;20056;-57
2023/08/28 14:04:01;;;;;;;2.33;1.23;;;;;;;;;;5055799;28;20525;-56
2023/08/28 14:06:29;;;;;;;2.17;1.23;;;;;;;;;;5055145;28;20056;-54
2023/08/28 14:08:56;;;;;;;3.25;1.17;;;;;;;;;;5049510;28;20486;-53
2023/08/28 14:11:24;;;;;;;1.65;1.00;;;;;;;;;;5052151;28;20511;-55
2023/08/28 14:13:50;;;;;;;2.17;1.13;;;;;;;;;;5054370;28;20049;-54
2023/08/28 14:16:17;;;;;;;3.00;1.20;;;;;;;;;;5053581;28;20124;-57
2023/08/28 14:18:44;;;;;;;3.03;1.38;;;;;;;;;;5049040;28;20121;-57
2023/08/28 14:21:10;;;;;;;2.83;1.70;;;;;;;;;;5050949;28;20053;-57
2023/08/28 14:23:37;;;;;;;2.53;1.40;;;;;;;;;;5051181;28;20052;-55
2023/08/28 14:26:05;;;;;;;3.25;1.33;;;;;;;;;;5056245;28;20243;-50
2023/08/28 14:28:33;;;;;;;1.90;1.10;;;;;;;;;;5053825;28;20041;-54
2023/08/28 14:31:00;;;;;;;3.10;1.60;;;;;;;;;;5066690;28;20044;-54
2023/08/28 14:33:27;;;;;;;2.75;1.42;;;;;;;;;;5048573;28;20052;-55
2023/08/28 14:35:54;;;;;;;2.22;1.00;;;;;;;;;;5054219;28;20052;-52
2023/08/28 14:38:20;;;;;;;2.35;1.00;;;;;;;;;;5057341;28;20417;-53
2023/08/28 14:40:50;;;;;;;2.47;1.10;;;;;;;;;;5059682;28;20143;-56
2023/08/28 14:43:17;;;;;;;2.38;1.20;;;;;;;;;;5054769;28;20071;-55
2023/08/28 14:45:45;;;;;;;2.05;1.20;;;;;;;;;;5059100;28;20163;-56